VSION73 TJIG-TNCM
Flight info
| Callsign | VSION73 |
|---|---|
| Flight time | 0h 52m |
| Altitude | 11000 |
| Route | FAJAR STT RENTS JUICE RNAVRWY10 |
| Aircraft | SF50/L-SWGB/L |
Departure
| Time | 2026-04-26 18:20 |
|---|---|
| Airport | Fernando Luis Ribas Dominicci Airport (TJIG) |
Arrival
| Time | 2026-04-26 19:12 |
|---|---|
| Airport | Princess Juliana International Airport (TNCM) |
| Time | Latitude | Longitude | Altitude | Speed | Heading |
|---|---|---|---|---|---|
| 2026-04-26 18:10 | 18.45527 | -66.10166 | 13 ft | 0 kts | 187° |
| 2026-04-26 18:15 | 18.45528 | -66.10170 | 13 ft | 0 kts | 356° |
| 2026-04-26 18:16 | 18.45568 | -66.10167 | 13 ft | 11 kts | 5° |
| 2026-04-26 18:16 | 18.45577 | -66.10236 | 12 ft | 12 kts | 262° |
| 2026-04-26 18:17 | 18.45566 | -66.10336 | 12 ft | 15 kts | 264° |
| 2026-04-26 18:17 | 18.45551 | -66.10453 | 12 ft | 16 kts | 263° |
| 2026-04-26 18:17 | 18.45548 | -66.10552 | 12 ft | 3 kts | 338° |
| 2026-04-26 18:17 | 18.45549 | -66.10552 | 12 ft | 0 kts | 338° |
| 2026-04-26 18:18 | 18.45561 | -66.10558 | 11 ft | 8 kts | 338° |
| 2026-04-26 18:18 | 18.45595 | -66.10550 | 11 ft | 5 kts | 75° |
| 2026-04-26 18:18 | 18.45597 | -66.10545 | 11 ft | 0 kts | 74° |
| 2026-04-26 18:19 | 18.45602 | -66.10513 | 11 ft | 21 kts | 82° |
| 2026-04-26 18:19 | 18.45648 | -66.10156 | 12 ft | 76 kts | 83° |
| 2026-04-26 18:19 | 18.45724 | -66.09466 | 164 ft | 105 kts | 82° |
| 2026-04-26 18:20 | 18.45844 | -66.08708 | 571 ft | 108 kts | 73° |
| 2026-04-26 18:20 | 18.46158 | -66.07847 | 824 ft | 136 kts | 68° |
| 2026-04-26 18:20 | 18.46497 | -66.06813 | 1080 ft | 162 kts | 84° |
| 2026-04-26 18:20 | 18.46514 | -66.06409 | 1215 ft | 162 kts | 92° |
| 2026-04-26 18:21 | 18.46382 | -66.04492 | 1871 ft | 164 kts | 96° |
| 2026-04-26 18:21 | 18.46174 | -66.03303 | 2227 ft | 167 kts | 103° |
| 2026-04-26 18:21 | 18.45969 | -66.02090 | 2657 ft | 166 kts | 102° |
| 2026-04-26 18:21 | 18.45796 | -66.00915 | 3155 ft | 162 kts | 103° |
| 2026-04-26 18:22 | 18.45539 | -65.99757 | 3487 ft | 168 kts | 107° |
| 2026-04-26 18:22 | 18.45231 | -65.98576 | 3883 ft | 167 kts | 108° |
| 2026-04-26 18:22 | 18.45023 | -65.97347 | 4186 ft | 174 kts | 99° |
| 2026-04-26 18:22 | 18.44941 | -65.96087 | 4633 ft | 173 kts | 89° |
| 2026-04-26 18:23 | 18.45043 | -65.94799 | 5011 ft | 183 kts | 90° |
| 2026-04-26 18:23 | 18.45042 | -65.93439 | 5392 ft | 188 kts | 93° |
| 2026-04-26 18:23 | 18.45072 | -65.92050 | 5776 ft | 191 kts | 89° |
| 2026-04-26 18:23 | 18.45175 | -65.90663 | 6167 ft | 189 kts | 89° |
| 2026-04-26 18:24 | 18.45274 | -65.89284 | 6549 ft | 188 kts | 91° |
| 2026-04-26 18:24 | 18.45364 | -65.87915 | 6919 ft | 188 kts | 90° |
| 2026-04-26 18:24 | 18.45457 | -65.86549 | 7292 ft | 186 kts | 89° |
| 2026-04-26 18:24 | 18.45544 | -65.85194 | 7672 ft | 185 kts | 88° |
| 2026-04-26 18:25 | 18.45636 | -65.83849 | 8057 ft | 183 kts | 88° |
| 2026-04-26 18:25 | 18.45723 | -65.82519 | 8443 ft | 182 kts | 90° |
| 2026-04-26 18:25 | 18.45808 | -65.81197 | 8832 ft | 180 kts | 89° |
| 2026-04-26 18:25 | 18.45888 | -65.79887 | 9229 ft | 179 kts | 89° |
| 2026-04-26 18:26 | 18.45978 | -65.78587 | 9626 ft | 178 kts | 89° |
| 2026-04-26 18:26 | 18.46061 | -65.77291 | 10013 ft | 177 kts | 89° |
| 2026-04-26 18:26 | 18.46147 | -65.75986 | 10294 ft | 183 kts | 88° |
| 2026-04-26 18:26 | 18.46235 | -65.74627 | 10512 ft | 189 kts | 90° |
| 2026-04-26 18:27 | 18.46327 | -65.73226 | 10739 ft | 195 kts | 88° |
| 2026-04-26 18:27 | 18.46421 | -65.71787 | 10953 ft | 199 kts | 88° |
| 2026-04-26 18:27 | 18.46518 | -65.70292 | 11012 ft | 211 kts | 88° |
| 2026-04-26 18:27 | 18.46622 | -65.68705 | 11023 ft | 222 kts | 89° |
| 2026-04-26 18:28 | 18.46732 | -65.67051 | 11023 ft | 230 kts | 88° |
| 2026-04-26 18:28 | 18.46844 | -65.65344 | 11023 ft | 236 kts | 89° |
| 2026-04-26 18:28 | 18.46848 | -65.63614 | 11020 ft | 237 kts | 101° |
| 2026-04-26 18:28 | 18.46445 | -65.61936 | 11024 ft | 237 kts | 108° |
| 2026-04-26 18:29 | 18.46043 | -65.60238 | 11029 ft | 240 kts | 105° |
| 2026-04-26 18:29 | 18.45660 | -65.58527 | 11030 ft | 240 kts | 105° |
| 2026-04-26 18:29 | 18.45259 | -65.56815 | 11028 ft | 241 kts | 106° |
| 2026-04-26 18:29 | 18.44858 | -65.55124 | 11028 ft | 241 kts | 106° |
| 2026-04-26 18:30 | 18.44450 | -65.53388 | 11028 ft | 242 kts | 106° |
| 2026-04-26 18:30 | 18.44047 | -65.51668 | 11029 ft | 242 kts | 106° |
| 2026-04-26 18:30 | 18.43780 | -65.50532 | 11028 ft | 242 kts | 106° |
| 2026-04-26 18:30 | 18.43375 | -65.48814 | 11029 ft | 242 kts | 106° |
| 2026-04-26 18:31 | 18.42841 | -65.46536 | 11028 ft | 242 kts | 106° |
| 2026-04-26 18:31 | 18.42436 | -65.44819 | 11029 ft | 242 kts | 106° |
| 2026-04-26 18:31 | 18.42032 | -65.43098 | 11029 ft | 242 kts | 106° |
| 2026-04-26 18:31 | 18.41627 | -65.41378 | 11029 ft | 242 kts | 106° |
| 2026-04-26 18:32 | 18.41222 | -65.39657 | 11031 ft | 242 kts | 106° |
| 2026-04-26 18:32 | 18.40955 | -65.38520 | 11031 ft | 242 kts | 106° |
| 2026-04-26 18:32 | 18.40543 | -65.36777 | 11031 ft | 242 kts | 106° |
| 2026-04-26 18:32 | 18.40138 | -65.35062 | 11034 ft | 242 kts | 106° |
| 2026-04-26 18:33 | 18.39731 | -65.33341 | 11030 ft | 242 kts | 106° |
| 2026-04-26 18:33 | 18.39330 | -65.31642 | 11030 ft | 242 kts | 106° |
| 2026-04-26 18:33 | 18.38924 | -65.29920 | 11030 ft | 242 kts | 106° |
| 2026-04-26 18:33 | 18.38517 | -65.28202 | 11031 ft | 242 kts | 105° |
| 2026-04-26 18:34 | 18.38110 | -65.26480 | 11029 ft | 242 kts | 106° |
| 2026-04-26 18:34 | 18.37703 | -65.24763 | 11029 ft | 242 kts | 106° |
| 2026-04-26 18:34 | 18.37297 | -65.23044 | 11032 ft | 242 kts | 105° |
| 2026-04-26 18:34 | 18.36891 | -65.21324 | 11035 ft | 242 kts | 106° |
| 2026-04-26 18:35 | 18.36482 | -65.19600 | 11037 ft | 243 kts | 105° |
| 2026-04-26 18:35 | 18.36073 | -65.17868 | 11037 ft | 244 kts | 106° |
| 2026-04-26 18:35 | 18.35662 | -65.16136 | 11035 ft | 244 kts | 105° |
| 2026-04-26 18:35 | 18.35254 | -65.14406 | 11035 ft | 243 kts | 106° |
| 2026-04-26 18:36 | 18.34844 | -65.12683 | 11034 ft | 243 kts | 105° |
| 2026-04-26 18:36 | 18.34435 | -65.10960 | 11034 ft | 242 kts | 106° |
| 2026-04-26 18:36 | 18.34026 | -65.09241 | 11033 ft | 242 kts | 106° |
| 2026-04-26 18:36 | 18.33618 | -65.07522 | 11033 ft | 242 kts | 106° |
| 2026-04-26 18:37 | 18.33210 | -65.05805 | 11033 ft | 242 kts | 106° |
| 2026-04-26 18:37 | 18.32800 | -65.04087 | 11033 ft | 242 kts | 106° |
| 2026-04-26 18:37 | 18.32393 | -65.02371 | 11034 ft | 242 kts | 106° |
| 2026-04-26 18:37 | 18.31984 | -65.00653 | 11034 ft | 242 kts | 106° |
| 2026-04-26 18:38 | 18.31575 | -64.98939 | 11033 ft | 242 kts | 106° |
| 2026-04-26 18:38 | 18.31174 | -64.97245 | 11033 ft | 242 kts | 105° |
| 2026-04-26 18:38 | 18.30765 | -64.95529 | 11032 ft | 242 kts | 105° |
| 2026-04-26 18:38 | 18.30357 | -64.93817 | 11030 ft | 241 kts | 106° |
| 2026-04-26 18:39 | 18.29949 | -64.92102 | 11030 ft | 241 kts | 105° |
| 2026-04-26 18:39 | 18.29540 | -64.90390 | 11030 ft | 241 kts | 105° |
| 2026-04-26 18:39 | 18.29133 | -64.88680 | 11030 ft | 241 kts | 105° |
| 2026-04-26 18:39 | 18.28724 | -64.86971 | 11030 ft | 241 kts | 106° |
| 2026-04-26 18:40 | 18.28315 | -64.85260 | 11029 ft | 241 kts | 106° |
| 2026-04-26 18:40 | 18.27906 | -64.83547 | 11022 ft | 241 kts | 105° |
| 2026-04-26 18:40 | 18.27498 | -64.81837 | 11023 ft | 241 kts | 106° |
| 2026-04-26 18:40 | 18.27088 | -64.80128 | 11023 ft | 241 kts | 106° |
| 2026-04-26 18:41 | 18.26679 | -64.78418 | 11020 ft | 241 kts | 106° |
| 2026-04-26 18:41 | 18.26390 | -64.76687 | 11019 ft | 241 kts | 98° |
| 2026-04-26 18:41 | 18.26201 | -64.74931 | 11018 ft | 241 kts | 98° |
| 2026-04-26 18:41 | 18.25999 | -64.73176 | 11019 ft | 242 kts | 98° |
| 2026-04-26 18:42 | 18.25792 | -64.71444 | 11019 ft | 242 kts | 98° |
| 2026-04-26 18:42 | 18.25580 | -64.69670 | 11019 ft | 242 kts | 98° |
| 2026-04-26 18:42 | 18.25376 | -64.67937 | 11019 ft | 242 kts | 98° |
| 2026-04-26 18:42 | 18.25168 | -64.66183 | 11019 ft | 242 kts | 98° |
| 2026-04-26 18:43 | 18.24960 | -64.64425 | 11019 ft | 242 kts | 98° |
| 2026-04-26 18:43 | 18.24750 | -64.62672 | 11019 ft | 242 kts | 98° |
| 2026-04-26 18:43 | 18.24542 | -64.60916 | 11019 ft | 242 kts | 98° |
| 2026-04-26 18:43 | 18.24333 | -64.59161 | 11022 ft | 242 kts | 98° |
| 2026-04-26 18:44 | 18.24124 | -64.57408 | 11028 ft | 242 kts | 98° |
| 2026-04-26 18:44 | 18.23914 | -64.55647 | 11029 ft | 242 kts | 98° |
| 2026-04-26 18:44 | 18.23704 | -64.53889 | 11029 ft | 242 kts | 98° |
| 2026-04-26 18:44 | 18.23494 | -64.52130 | 11028 ft | 243 kts | 98° |
| 2026-04-26 18:45 | 18.23284 | -64.50373 | 11025 ft | 242 kts | 98° |
| 2026-04-26 18:45 | 18.23073 | -64.48607 | 11025 ft | 242 kts | 98° |
| 2026-04-26 18:45 | 18.22864 | -64.46852 | 11020 ft | 242 kts | 99° |
| 2026-04-26 18:45 | 18.22653 | -64.45093 | 11020 ft | 242 kts | 99° |
| 2026-04-26 18:46 | 18.22442 | -64.43334 | 11022 ft | 242 kts | 98° |
| 2026-04-26 18:46 | 18.22235 | -64.41601 | 11022 ft | 242 kts | 98° |
| 2026-04-26 18:46 | 18.22025 | -64.39849 | 11022 ft | 242 kts | 98° |
| 2026-04-26 18:46 | 18.21814 | -64.38091 | 11022 ft | 242 kts | 98° |
| 2026-04-26 18:47 | 18.21602 | -64.36337 | 11022 ft | 242 kts | 99° |
| 2026-04-26 18:47 | 18.21391 | -64.34579 | 11017 ft | 242 kts | 99° |
| 2026-04-26 18:47 | 18.21179 | -64.32824 | 11018 ft | 242 kts | 98° |
| 2026-04-26 18:47 | 18.20968 | -64.31074 | 11017 ft | 242 kts | 99° |
| 2026-04-26 18:48 | 18.20756 | -64.29315 | 11018 ft | 242 kts | 98° |
| 2026-04-26 18:48 | 18.20544 | -64.27560 | 11018 ft | 242 kts | 98° |
| 2026-04-26 18:48 | 18.20333 | -64.25810 | 11020 ft | 234 kts | 98° |
| 2026-04-26 18:48 | 18.20135 | -64.24163 | 10897 ft | 223 kts | 98° |
| 2026-04-26 18:49 | 18.19942 | -64.22571 | 10725 ft | 216 kts | 98° |
| 2026-04-26 18:49 | 18.19754 | -64.21020 | 10557 ft | 212 kts | 98° |
| 2026-04-26 18:49 | 18.19569 | -64.19498 | 10393 ft | 209 kts | 98° |
| 2026-04-26 18:49 | 18.19387 | -64.17992 | 10229 ft | 207 kts | 98° |
| 2026-04-26 18:50 | 18.19206 | -64.16497 | 10065 ft | 205 kts | 99° |
| 2026-04-26 18:50 | 18.19026 | -64.15018 | 9901 ft | 203 kts | 98° |
| 2026-04-26 18:50 | 18.18847 | -64.13538 | 9702 ft | 204 kts | 99° |
| 2026-04-26 18:50 | 18.18670 | -64.12078 | 9504 ft | 204 kts | 98° |
| 2026-04-26 18:51 | 18.18491 | -64.10604 | 9310 ft | 203 kts | 98° |
| 2026-04-26 18:51 | 18.18312 | -64.09130 | 9109 ft | 202 kts | 98° |
| 2026-04-26 18:51 | 18.18134 | -64.07664 | 8929 ft | 201 kts | 98° |
| 2026-04-26 18:51 | 18.17957 | -64.06215 | 8778 ft | 199 kts | 99° |
| 2026-04-26 18:52 | 18.17780 | -64.04777 | 8627 ft | 197 kts | 99° |
| 2026-04-26 18:52 | 18.17606 | -64.03350 | 8480 ft | 196 kts | 98° |
| 2026-04-26 18:52 | 18.17434 | -64.01938 | 8332 ft | 194 kts | 99° |
| 2026-04-26 18:52 | 18.17262 | -64.00532 | 8186 ft | 193 kts | 98° |
| 2026-04-26 18:53 | 18.17092 | -63.99133 | 8038 ft | 193 kts | 100° |
| 2026-04-26 18:53 | 18.16920 | -63.97735 | 7893 ft | 192 kts | 99° |
| 2026-04-26 18:53 | 18.16749 | -63.96346 | 7749 ft | 192 kts | 100° |
| 2026-04-26 18:53 | 18.16579 | -63.94955 | 7606 ft | 191 kts | 99° |
| 2026-04-26 18:54 | 18.16409 | -63.93568 | 7464 ft | 191 kts | 99° |
| 2026-04-26 18:54 | 18.16242 | -63.92199 | 7323 ft | 190 kts | 100° |
| 2026-04-26 18:54 | 18.16071 | -63.90809 | 7180 ft | 190 kts | 100° |
| 2026-04-26 18:54 | 18.15904 | -63.89452 | 7047 ft | 189 kts | 99° |
| 2026-04-26 18:55 | 18.15736 | -63.88079 | 6899 ft | 189 kts | 100° |
| 2026-04-26 18:55 | 18.15567 | -63.86713 | 6761 ft | 189 kts | 100° |
| 2026-04-26 18:55 | 18.15400 | -63.85348 | 6624 ft | 188 kts | 101° |
| 2026-04-26 18:55 | 18.15233 | -63.83981 | 6486 ft | 188 kts | 100° |
| 2026-04-26 18:56 | 18.15065 | -63.82622 | 6348 ft | 187 kts | 101° |
| 2026-04-26 18:56 | 18.14898 | -63.81263 | 6199 ft | 187 kts | 100° |
| 2026-04-26 18:56 | 18.14730 | -63.79905 | 6051 ft | 187 kts | 100° |
| 2026-04-26 18:56 | 18.14563 | -63.78548 | 5904 ft | 187 kts | 100° |
| 2026-04-26 18:57 | 18.14397 | -63.77191 | 5754 ft | 187 kts | 100° |
| 2026-04-26 18:57 | 18.14285 | -63.76292 | 5657 ft | 187 kts | 100° |
| 2026-04-26 18:57 | 18.14061 | -63.74473 | 5462 ft | 187 kts | 100° |
| 2026-04-26 18:57 | 18.13893 | -63.73110 | 5316 ft | 188 kts | 99° |
| 2026-04-26 18:58 | 18.13725 | -63.71755 | 5175 ft | 186 kts | 100° |
| 2026-04-26 18:58 | 18.13552 | -63.70399 | 4985 ft | 188 kts | 101° |
| 2026-04-26 18:58 | 18.13387 | -63.69039 | 4798 ft | 188 kts | 99° |
| 2026-04-26 18:58 | 18.13220 | -63.67672 | 4598 ft | 188 kts | 99° |
| 2026-04-26 18:59 | 18.13006 | -63.66321 | 4399 ft | 186 kts | 108° |
| 2026-04-26 18:59 | 18.12582 | -63.65039 | 4202 ft | 186 kts | 111° |
| 2026-04-26 18:59 | 18.12175 | -63.63747 | 4008 ft | 186 kts | 110° |
| 2026-04-26 18:59 | 18.11776 | -63.62455 | 3815 ft | 186 kts | 110° |
| 2026-04-26 19:00 | 18.11380 | -63.61183 | 3628 ft | 186 kts | 110° |
| 2026-04-26 19:00 | 18.10976 | -63.59901 | 3439 ft | 184 kts | 110° |
| 2026-04-26 19:00 | 18.10573 | -63.58616 | 3247 ft | 186 kts | 110° |
| 2026-04-26 19:00 | 18.10172 | -63.57327 | 3050 ft | 185 kts | 110° |
| 2026-04-26 19:01 | 18.09768 | -63.56048 | 2852 ft | 185 kts | 110° |
| 2026-04-26 19:01 | 18.09363 | -63.54759 | 2665 ft | 186 kts | 110° |
| 2026-04-26 19:01 | 18.08962 | -63.53478 | 2623 ft | 181 kts | 110° |
| 2026-04-26 19:01 | 18.08573 | -63.52234 | 2621 ft | 179 kts | 110° |
| 2026-04-26 19:02 | 18.08178 | -63.50973 | 2624 ft | 184 kts | 110° |
| 2026-04-26 19:02 | 18.07775 | -63.49687 | 2622 ft | 185 kts | 110° |
| 2026-04-26 19:02 | 18.07371 | -63.48403 | 2628 ft | 185 kts | 110° |
| 2026-04-26 19:02 | 18.07103 | -63.47555 | 2632 ft | 185 kts | 110° |
| 2026-04-26 19:03 | 18.06565 | -63.45829 | 2630 ft | 186 kts | 110° |
| 2026-04-26 19:03 | 18.06161 | -63.44543 | 2630 ft | 185 kts | 110° |
| 2026-04-26 19:03 | 18.05759 | -63.43272 | 2633 ft | 181 kts | 111° |
| 2026-04-26 19:03 | 18.05373 | -63.42036 | 2625 ft | 175 kts | 110° |
| 2026-04-26 19:04 | 18.04997 | -63.40836 | 2621 ft | 171 kts | 110° |
| 2026-04-26 19:04 | 18.04752 | -63.40059 | 2618 ft | 168 kts | 110° |
| 2026-04-26 19:04 | 18.04276 | -63.38569 | 2684 ft | 152 kts | 112° |
| 2026-04-26 19:04 | 18.03989 | -63.37519 | 2662 ft | 148 kts | 110° |
| 2026-04-26 19:05 | 18.03379 | -63.35495 | 2547 ft | 142 kts | 110° |
| 2026-04-26 19:05 | 18.03060 | -63.34555 | 2614 ft | 133 kts | 113° |
| 2026-04-26 19:05 | 18.02740 | -63.33654 | 2624 ft | 131 kts | 112° |
| 2026-04-26 19:06 | 18.02434 | -63.32746 | 2631 ft | 131 kts | 112° |
| 2026-04-26 19:06 | 18.02117 | -63.31833 | 2620 ft | 133 kts | 112° |
| 2026-04-26 19:06 | 18.01841 | -63.30890 | 2614 ft | 135 kts | 109° |
| 2026-04-26 19:06 | 18.01586 | -63.29943 | 2626 ft | 135 kts | 105° |
| 2026-04-26 19:07 | 18.01586 | -63.28911 | 2449 ft | 148 kts | 83° |
| 2026-04-26 19:07 | 18.01755 | -63.27807 | 2245 ft | 156 kts | 83° |
| 2026-04-26 19:07 | 18.01923 | -63.26754 | 2061 ft | 138 kts | 85° |
| 2026-04-26 19:07 | 18.02075 | -63.25767 | 1656 ft | 140 kts | 85° |
| 2026-04-26 19:08 | 18.02208 | -63.24807 | 1663 ft | 119 kts | 85° |
| 2026-04-26 19:08 | 18.02360 | -63.23981 | 1611 ft | 111 kts | 89° |
| 2026-04-26 19:08 | 18.02405 | -63.23118 | 1657 ft | 124 kts | 90° |
| 2026-04-26 19:08 | 18.02534 | -63.22206 | 1710 ft | 130 kts | 83° |
| 2026-04-26 19:09 | 18.02754 | -63.21278 | 1724 ft | 131 kts | 79° |
| 2026-04-26 19:09 | 18.02954 | -63.20329 | 1659 ft | 137 kts | 87° |
| 2026-04-26 19:09 | 18.03086 | -63.19303 | 1495 ft | 143 kts | 85° |
| 2026-04-26 19:09 | 18.03225 | -63.18396 | 1285 ft | 114 kts | 87° |
| 2026-04-26 19:10 | 18.03359 | -63.17571 | 1064 ft | 113 kts | 87° |
| 2026-04-26 19:10 | 18.03455 | -63.16768 | 896 ft | 113 kts | 93° |
| 2026-04-26 19:10 | 18.03529 | -63.15878 | 878 ft | 115 kts | 91° |
| 2026-04-26 19:10 | 18.03574 | -63.15085 | 808 ft | 106 kts | 92° |
| 2026-04-26 19:11 | 18.03672 | -63.14299 | 622 ft | 109 kts | 85° |
| 2026-04-26 19:11 | 18.03782 | -63.13504 | 417 ft | 111 kts | 89° |
| 2026-04-26 19:11 | 18.03858 | -63.12706 | 241 ft | 108 kts | 91° |
| 2026-04-26 19:11 | 18.03948 | -63.11930 | 41 ft | 100 kts | 86° |
| 2026-04-26 19:12 | 18.04027 | -63.11336 | 14 ft | 62 kts | 89° |
| 2026-04-26 19:12 | 18.04102 | -63.11166 | 16 ft | 12 kts | 11° |
| 2026-04-26 19:12 | 18.04141 | -63.11168 | 15 ft | 0 kts | 353° |
| 2026-04-26 19:13 | 18.04143 | -63.11168 | 15 ft | 5 kts | 15° |
| 2026-04-26 19:13 | 18.04168 | -63.11049 | 15 ft | 10 kts | 86° |
| 2026-04-26 19:14 | 18.04146 | -63.11001 | 16 ft | 0 kts | 142° |
| 2026-04-26 19:14 | 18.04127 | -63.10996 | 16 ft | 8 kts | 167° |
| 2026-04-26 19:14 | 18.04092 | -63.10961 | 15 ft | 13 kts | 109° |
| 2026-04-26 19:14 | 18.04095 | -63.10877 | 15 ft | 23 kts | 81° |
| 2026-04-26 19:15 | 18.04120 | -63.10713 | 15 ft | 11 kts | 81° |
| 2026-04-26 19:15 | 18.04150 | -63.10513 | 15 ft | 38 kts | 89° |
| 2026-04-26 19:15 | 18.04178 | -63.10301 | 13 ft | 23 kts | 81° |
| 2026-04-26 19:15 | 18.04200 | -63.10144 | 13 ft | 20 kts | 81° |
| 2026-04-26 19:16 | 18.04220 | -63.10002 | 13 ft | 19 kts | 79° |
| 2026-04-26 19:16 | 18.04239 | -63.09875 | 14 ft | 16 kts | 88° |
| 2026-04-26 19:16 | 18.04183 | -63.09794 | 14 ft | 12 kts | 129° |
| 2026-04-26 19:16 | 18.04183 | -63.09739 | 14 ft | 4 kts | 85° |